createdAt,value
2022-10-22T00:00:08.509Z,998.20
2022-10-22T00:01:08.540Z,998.18
2022-10-22T00:02:08.494Z,998.17
2022-10-22T00:03:08.531Z,998.19
2022-10-22T00:04:08.449Z,998.27
2022-10-22T00:05:08.471Z,998.19
2022-10-22T00:06:08.432Z,998.24
2022-10-22T00:07:18.410Z,998.23
2022-10-22T00:08:09.969Z,998.28
2022-10-22T00:09:11.296Z,998.26
2022-10-22T00:10:13.896Z,998.27
2022-10-22T00:11:16.859Z,998.33
2022-10-22T00:12:37.562Z,998.26
2022-10-22T00:13:08.359Z,998.25
2022-10-22T00:14:08.339Z,998.25
2022-10-22T00:15:08.328Z,998.19
2022-10-22T00:16:08.366Z,998.18
2022-10-22T00:17:11.483Z,998.18
2022-10-22T00:18:08.292Z,998.19
2022-10-22T00:19:08.299Z,998.14
2022-10-22T00:20:08.271Z,998.18
2022-10-22T00:21:08.301Z,998.19
2022-10-22T00:22:08.268Z,998.28
2022-10-22T00:23:08.261Z,998.32
2022-10-22T00:24:08.224Z,998.28
2022-10-22T00:29:55.537Z,998.22
2022-10-22T00:30:55.495Z,998.22
2022-10-22T00:32:55.534Z,998.25
2022-10-22T00:33:57.906Z,998.23
2022-10-22T00:34:55.467Z,998.25
2022-10-22T00:35:55.477Z,998.30
2022-10-22T00:36:55.430Z,998.31
2022-10-22T00:37:55.411Z,998.30
2022-10-22T00:38:55.531Z,998.35
2022-10-22T00:39:57.338Z,998.40
2022-10-22T00:41:57.272Z,998.47
2022-10-22T00:42:57.973Z,998.50
2022-10-22T00:43:58.651Z,998.59
2022-10-22T00:44:55.366Z,998.60
2022-10-22T00:45:55.332Z,998.62
2022-10-22T00:46:55.312Z,998.62
2022-10-22T00:47:55.308Z,998.64
2022-10-22T00:48:56.506Z,998.63
2022-10-22T00:49:57.250Z,998.59
2022-10-22T00:50:55.289Z,998.58
2022-10-22T00:52:00.544Z,998.53
2022-10-22T00:52:56.792Z,998.49
2022-10-22T00:53:56.996Z,998.42
2022-10-22T00:55:03.436Z,998.40
2022-10-22T00:56:00.370Z,998.41
2022-10-22T00:56:56.691Z,998.43
2022-10-22T00:57:57.561Z,998.46
2022-10-22T00:58:57.088Z,998.47
2022-10-22T00:59:56.180Z,998.47
2022-10-22T01:00:55.297Z,998.48
2022-10-22T01:01:55.150Z,998.47
2022-10-22T01:03:03.233Z,998.46
2022-10-22T01:03:57.920Z,998.46
2022-10-22T01:04:55.141Z,998.45
2022-10-22T01:05:55.127Z,998.53
2022-10-22T01:06:55.095Z,998.54
2022-10-22T01:07:55.105Z,998.48
2022-10-22T01:08:55.114Z,998.47
2022-10-22T01:09:55.062Z,998.47
2022-10-22T01:10:55.081Z,998.52
2022-10-22T01:11:55.083Z,998.47
2022-10-22T01:12:55.031Z,998.38
2022-10-22T01:13:55.061Z,998.37
2022-10-22T01:14:55.034Z,998.43
2022-10-22T01:15:54.995Z,998.37
2022-10-22T01:16:55.002Z,998.40
2022-10-22T01:17:55.008Z,998.40
2022-10-22T01:18:54.993Z,998.41
2022-10-22T01:19:55.023Z,998.47
2022-10-22T01:20:54.988Z,998.49
2022-10-22T01:21:54.932Z,998.53
2022-10-22T01:22:54.935Z,998.40
2022-10-22T01:23:54.925Z,998.46
2022-10-22T01:24:54.900Z,998.43
2022-10-22T01:25:54.911Z,998.40
2022-10-22T01:26:54.905Z,998.39
2022-10-22T01:27:54.864Z,998.43
2022-10-22T01:28:54.870Z,998.42
2022-10-22T01:29:54.841Z,998.42
2022-10-22T01:30:54.871Z,998.41
2022-10-22T01:31:54.854Z,998.36
2022-10-22T01:32:54.833Z,998.39
2022-10-22T01:33:54.800Z,998.37
2022-10-22T01:34:54.795Z,998.37
2022-10-22T01:35:54.777Z,998.34
2022-10-22T01:36:54.785Z,998.31
2022-10-22T01:37:54.795Z,998.31
2022-10-22T01:38:54.788Z,998.35
2022-10-22T01:40:17.616Z,998.35
2022-10-22T01:40:57.491Z,998.38
2022-10-22T01:42:03.710Z,998.32
2022-10-22T01:42:55.786Z,998.37
2022-10-22T01:43:56.164Z,998.34
2022-10-22T01:44:54.701Z,998.41
2022-10-22T01:45:54.677Z,998.42
2022-10-22T01:46:54.675Z,998.48
2022-10-22T01:47:54.982Z,998.50
2022-10-22T01:48:57.180Z,998.50
2022-10-22T01:49:55.296Z,998.46
2022-10-22T01:50:54.635Z,998.44
2022-10-22T01:51:54.635Z,998.45
2022-10-22T01:52:54.640Z,998.44
2022-10-22T01:53:57.371Z,998.40
2022-10-22T01:54:54.601Z,998.43
2022-10-22T01:55:54.662Z,998.41
2022-10-22T01:56:54.559Z,998.42
2022-10-22T01:57:54.564Z,998.40
2022-10-22T01:58:54.552Z,998.38
2022-10-22T01:59:55.741Z,998.40
2022-10-22T02:00:56.302Z,998.40
2022-10-22T02:01:54.627Z,998.34
2022-10-22T02:03:02.348Z,998.32
2022-10-22T02:03:56.927Z,998.29
2022-10-22T02:04:54.498Z,998.32
2022-10-22T02:05:57.283Z,998.24
2022-10-22T02:07:01.327Z,998.27
2022-10-22T02:07:57.374Z,998.21
2022-10-22T02:08:55.506Z,998.28
2022-10-22T02:09:57.240Z,998.25
2022-10-22T02:10:55.478Z,998.25
2022-10-22T02:12:03.268Z,998.27
2022-10-22T02:12:54.379Z,998.30
2022-10-22T02:13:54.377Z,998.31
2022-10-22T02:14:54.354Z,998.36
2022-10-22T02:15:54.351Z,998.35
2022-10-22T02:16:54.362Z,998.29
2022-10-22T02:17:54.338Z,998.27
2022-10-22T02:18:54.329Z,998.28
2022-10-22T02:19:54.333Z,998.23
2022-10-22T02:20:54.382Z,998.25
2022-10-22T02:21:54.295Z,998.19
2022-10-22T02:22:54.304Z,998.18
2022-10-22T02:23:54.270Z,998.17
2022-10-22T02:24:54.247Z,998.14
2022-10-22T02:25:54.254Z,998.22
2022-10-22T02:26:54.222Z,998.15
2022-10-22T02:27:54.254Z,998.16
2022-10-22T02:28:54.200Z,998.09
2022-10-22T02:29:54.188Z,998.10
2022-10-22T02:30:54.220Z,998.08
2022-10-22T02:31:54.173Z,998.13
2022-10-22T02:32:54.160Z,998.07
2022-10-22T02:33:54.198Z,998.09
2022-10-22T02:34:54.136Z,998.09
2022-10-22T02:35:54.150Z,998.03
2022-10-22T02:36:54.117Z,998.03
2022-10-22T02:37:54.129Z,998.01
2022-10-22T02:38:54.125Z,997.99
2022-10-22T02:39:54.115Z,997.98
2022-10-22T02:40:54.071Z,998.01
2022-10-22T02:41:54.081Z,998.02
2022-10-22T02:42:54.059Z,998.06
2022-10-22T02:43:54.037Z,998.00
2022-10-22T02:44:54.035Z,997.99
2022-10-22T02:45:54.068Z,997.96
2022-10-22T02:46:54.004Z,998.02
2022-10-22T02:47:53.993Z,997.98
2022-10-22T02:48:53.989Z,997.98
2022-10-22T02:49:53.972Z,997.97
2022-10-22T02:50:53.972Z,998.08
2022-10-22T02:51:53.991Z,998.01
2022-10-22T02:52:53.939Z,998.05
2022-10-22T02:53:53.933Z,998.04
2022-10-22T02:54:53.940Z,998.06
2022-10-22T02:55:53.935Z,998.10
2022-10-22T02:56:53.920Z,998.08
2022-10-22T02:57:53.932Z,998.08
2022-10-22T02:58:53.874Z,998.06
2022-10-22T02:59:53.863Z,998.01
2022-10-22T03:00:53.988Z,997.98
2022-10-22T03:01:53.844Z,997.99
2022-10-22T03:02:53.849Z,998.05
2022-10-22T03:03:53.861Z,998.12
2022-10-22T03:04:53.808Z,998.09
2022-10-22T03:05:53.799Z,998.16
2022-10-22T03:06:53.825Z,998.14
2022-10-22T03:07:53.786Z,998.21
2022-10-22T03:08:53.791Z,998.21
2022-10-22T03:09:53.792Z,998.20
2022-10-22T03:10:53.757Z,998.22
2022-10-22T03:11:53.754Z,998.20
2022-10-22T03:12:53.761Z,998.22
2022-10-22T03:13:53.729Z,998.15
2022-10-22T03:14:53.709Z,998.22
2022-10-22T03:15:53.734Z,998.28
2022-10-22T03:16:53.678Z,998.31
2022-10-22T03:17:53.667Z,998.30
2022-10-22T03:18:53.698Z,998.31
2022-10-22T03:19:53.651Z,998.32
2022-10-22T03:20:53.662Z,998.30
2022-10-22T03:21:53.654Z,998.28
2022-10-22T03:22:53.612Z,998.29
2022-10-22T03:23:53.605Z,998.24
2022-10-22T03:24:53.629Z,998.21
2022-10-22T03:25:53.665Z,998.22
2022-10-22T03:26:53.566Z,998.22
2022-10-22T03:27:53.605Z,998.29
2022-10-22T03:28:53.548Z,998.39
2022-10-22T03:29:53.552Z,998.43
2022-10-22T03:30:53.523Z,998.47
2022-10-22T03:31:53.519Z,998.49
2022-10-22T03:32:53.524Z,998.48
2022-10-22T03:33:53.540Z,998.47
2022-10-22T03:34:53.507Z,998.43
2022-10-22T03:35:53.468Z,998.40
2022-10-22T03:36:53.464Z,998.39
2022-10-22T03:37:53.475Z,998.37
2022-10-22T03:38:53.436Z,998.38
2022-10-22T03:39:54.665Z,998.39
2022-10-22T03:41:00.145Z,998.43
2022-10-22T03:41:56.198Z,998.43
2022-10-22T03:42:58.915Z,998.45
2022-10-22T03:43:54.418Z,998.44
2022-10-22T03:44:53.374Z,998.41
2022-10-22T03:45:53.358Z,998.35
2022-10-22T03:46:53.347Z,998.39
2022-10-22T03:47:53.399Z,998.42
2022-10-22T03:48:53.355Z,998.36
2022-10-22T03:49:54.892Z,998.42
2022-10-22T03:50:54.342Z,998.40
2022-10-22T03:51:54.939Z,998.43
2022-10-22T03:52:54.402Z,998.49
2022-10-22T03:54:01.453Z,998.53
2022-10-22T03:54:56.577Z,998.54
2022-10-22T03:55:53.368Z,998.54
2022-10-22T03:56:53.252Z,998.51
2022-10-22T03:57:58.081Z,998.51
2022-10-22T03:58:55.562Z,998.56
2022-10-22T03:59:55.222Z,998.57
2022-10-22T04:00:56.934Z,998.54
2022-10-22T04:01:54.661Z,998.49
2022-10-22T04:02:57.819Z,998.59
2022-10-22T04:03:55.914Z,998.55
2022-10-22T04:04:58.024Z,998.51
2022-10-22T04:05:55.115Z,998.53
2022-10-22T04:06:56.862Z,998.47
2022-10-22T04:07:57.634Z,998.51
2022-10-22T04:08:59.843Z,998.51
2022-10-22T04:09:57.340Z,998.45
2022-10-22T04:10:53.145Z,998.43
2022-10-22T04:11:55.308Z,998.49
2022-10-22T04:12:53.734Z,998.48
2022-10-22T04:14:00.783Z,998.51
2022-10-22T04:14:56.035Z,998.52
2022-10-22T04:15:55.280Z,998.50
2022-10-22T04:16:53.157Z,998.48
2022-10-22T04:17:56.060Z,998.51
2022-10-22T04:18:57.655Z,998.48
2022-10-22T04:19:55.869Z,998.54
2022-10-22T04:20:57.257Z,998.53
2022-10-22T04:21:53.058Z,998.55
2022-10-22T04:22:57.047Z,998.56
2022-10-22T04:23:56.334Z,998.57
2022-10-22T04:24:58.630Z,998.60
2022-10-22T04:25:55.418Z,998.59
2022-10-22T04:26:54.729Z,998.64
2022-10-22T04:27:55.467Z,998.64
2022-10-22T04:29:13.607Z,998.64
2022-10-22T04:30:01.701Z,998.63
2022-10-22T04:30:53.890Z,998.63
2022-10-22T04:31:56.241Z,998.67
2022-10-22T04:32:52.865Z,998.64
2022-10-22T04:33:56.726Z,998.65
2022-10-22T04:34:55.700Z,998.70
2022-10-22T04:36:01.812Z,998.67
2022-10-22T04:37:12.014Z,998.75
2022-10-22T04:38:01.814Z,998.67
2022-10-22T04:38:55.196Z,998.70
2022-10-22T04:39:59.373Z,998.67
2022-10-22T04:41:01.935Z,998.72
2022-10-22T04:41:56.705Z,998.73
2022-10-22T04:42:57.220Z,998.70
2022-10-22T04:43:55.859Z,998.68
2022-10-22T04:44:54.882Z,998.69
2022-10-22T04:45:59.899Z,998.73
2022-10-22T04:46:58.353Z,998.66
2022-10-22T04:48:08.950Z,998.65
2022-10-22T04:48:55.112Z,998.67
2022-10-22T04:49:52.671Z,998.62
2022-10-22T04:50:52.666Z,998.65
2022-10-22T04:51:52.668Z,998.65
2022-10-22T04:52:52.635Z,998.59
2022-10-22T04:53:52.636Z,998.60
2022-10-22T04:54:52.606Z,998.61
2022-10-22T04:55:52.638Z,998.59
2022-10-22T04:56:52.614Z,998.62
2022-10-22T04:57:52.572Z,998.61
2022-10-22T04:58:52.572Z,998.60
2022-10-22T04:59:52.582Z,998.55
2022-10-22T05:00:52.572Z,998.54
2022-10-22T05:01:52.538Z,998.55
2022-10-22T05:02:52.526Z,998.55
2022-10-22T05:03:52.523Z,998.54
2022-10-22T05:04:52.531Z,998.54
2022-10-22T05:05:52.518Z,998.52
2022-10-22T05:06:52.471Z,998.58
2022-10-22T05:07:52.484Z,998.58
2022-10-22T05:08:52.540Z,998.56
2022-10-22T05:09:52.437Z,998.58
2022-10-22T05:10:52.469Z,998.61
2022-10-22T05:11:52.445Z,998.53
2022-10-22T05:12:52.408Z,998.52
2022-10-22T05:13:52.420Z,998.57
2022-10-22T05:14:52.383Z,998.56
2022-10-22T05:15:52.412Z,998.54
2022-10-22T05:16:52.400Z,998.58
2022-10-22T05:17:52.349Z,998.59
2022-10-22T05:18:52.339Z,998.57
2022-10-22T05:19:52.363Z,998.63
2022-10-22T05:20:52.345Z,998.67
2022-10-22T05:21:52.359Z,998.68
2022-10-22T05:22:52.305Z,998.61
2022-10-22T05:23:52.296Z,998.66
2022-10-22T05:24:52.271Z,998.63
2022-10-22T05:25:52.275Z,998.64
2022-10-22T05:26:52.284Z,998.67
2022-10-22T05:27:52.277Z,998.73
2022-10-22T05:28:52.227Z,998.72
2022-10-22T05:29:52.217Z,998.71
2022-10-22T05:30:52.221Z,998.75
2022-10-22T05:31:52.204Z,998.79
2022-10-22T05:32:52.208Z,998.82
2022-10-22T05:33:52.219Z,998.87
2022-10-22T05:34:52.204Z,998.83
2022-10-22T05:35:52.169Z,998.80
2022-10-22T05:36:52.143Z,998.82
2022-10-22T05:37:52.214Z,998.80
2022-10-22T05:38:52.119Z,998.81
2022-10-22T05:40:01.754Z,998.83
2022-10-22T05:40:52.099Z,998.85
2022-10-22T05:41:52.086Z,998.96
2022-10-22T05:42:52.107Z,998.98
2022-10-22T05:43:52.066Z,998.99
2022-10-22T05:44:52.055Z,999.01
2022-10-22T05:45:52.075Z,999.00
2022-10-22T05:46:52.060Z,999.05
2022-10-22T05:47:52.023Z,999.07
2022-10-22T05:48:52.013Z,999.03
2022-10-22T05:49:52.017Z,999.06
2022-10-22T05:50:52.008Z,999.11
2022-10-22T05:51:52.023Z,999.06
2022-10-22T05:52:51.967Z,999.03
2022-10-22T05:53:51.956Z,999.05
2022-10-22T05:54:51.984Z,999.03
2022-10-22T05:55:51.952Z,999.04
2022-10-22T05:56:51.931Z,998.97
2022-10-22T05:57:51.944Z,999.00
2022-10-22T05:58:52.039Z,998.97
2022-10-22T05:59:51.891Z,998.99
2022-10-22T06:00:51.926Z,999.05
2022-10-22T06:01:51.977Z,999.04
2022-10-22T06:02:51.867Z,999.05
2022-10-22T06:03:51.905Z,999.10
2022-10-22T06:04:51.833Z,999.10
2022-10-22T06:05:51.825Z,999.11
2022-10-22T06:06:51.829Z,999.17
2022-10-22T06:07:51.830Z,999.21
2022-10-22T06:08:51.850Z,999.28
2022-10-22T06:09:51.831Z,999.35
2022-10-22T06:10:51.770Z,999.39
2022-10-22T06:11:51.771Z,999.39
2022-10-22T06:12:51.771Z,999.42
2022-10-22T06:13:51.738Z,999.45
2022-10-22T06:14:51.728Z,999.46
2022-10-22T06:15:51.752Z,999.46
2022-10-22T06:16:51.720Z,999.48
2022-10-22T06:17:51.691Z,999.55
2022-10-22T06:18:51.692Z,999.48
2022-10-22T06:19:51.773Z,999.54
2022-10-22T06:20:51.669Z,999.47
2022-10-22T06:21:51.672Z,999.53
2022-10-22T06:22:51.682Z,999.46
2022-10-22T06:23:51.674Z,999.48
2022-10-22T06:24:51.642Z,999.57
2022-10-22T06:25:51.610Z,999.57
2022-10-22T06:26:51.609Z,999.59
2022-10-22T06:27:51.621Z,999.58
2022-10-22T06:28:51.569Z,999.56
2022-10-22T06:29:51.578Z,999.62
2022-10-22T06:30:51.548Z,999.64
2022-10-22T06:31:51.548Z,999.58
2022-10-22T06:32:51.527Z,999.66
2022-10-22T06:33:51.561Z,999.61
2022-10-22T06:34:51.522Z,999.57
2022-10-22T06:35:51.502Z,999.60
2022-10-22T06:36:51.512Z,999.61
2022-10-22T06:37:51.473Z,999.61
2022-10-22T06:38:51.460Z,999.64
2022-10-22T06:39:51.486Z,999.66
2022-10-22T06:40:51.459Z,999.68
2022-10-22T06:41:51.438Z,999.67
2022-10-22T06:42:51.416Z,999.66
2022-10-22T06:43:51.415Z,999.72
2022-10-22T06:44:51.503Z,999.75
2022-10-22T06:45:51.425Z,999.78
2022-10-22T06:46:51.372Z,999.72
2022-10-22T06:47:51.361Z,999.75
2022-10-22T06:48:51.352Z,999.80
2022-10-22T06:49:51.359Z,999.78
2022-10-22T06:50:51.327Z,999.79
2022-10-22T06:51:51.350Z,999.79
2022-10-22T06:52:51.311Z,999.85
2022-10-22T06:53:51.312Z,999.85
2022-10-22T06:54:51.290Z,999.77
2022-10-22T06:55:51.293Z,999.85
2022-10-22T06:56:51.292Z,999.86
2022-10-22T06:57:51.255Z,999.90
2022-10-22T06:58:51.287Z,999.94
2022-10-22T06:59:51.234Z,999.93
2022-10-22T07:00:51.468Z,999.97
2022-10-22T07:01:51.301Z,999.98
2022-10-22T07:02:51.196Z,999.99
2022-10-22T07:03:51.209Z,1000.01
2022-10-22T07:04:51.203Z,1000.05
2022-10-22T07:05:51.170Z,1000.08
2022-10-22T07:06:51.175Z,999.99
2022-10-22T07:07:51.142Z,999.97
2022-10-22T07:08:51.305Z,1000.08
2022-10-22T07:09:51.494Z,1000.04
2022-10-22T07:10:51.142Z,1000.06
2022-10-22T07:11:51.117Z,1000.04
2022-10-22T07:12:51.092Z,1000.07
2022-10-22T07:13:51.097Z,1000.12
2022-10-22T07:14:51.081Z,1000.13
2022-10-22T07:15:51.055Z,1000.16
2022-10-22T07:16:51.085Z,1000.15
2022-10-22T07:17:51.034Z,1000.20
2022-10-22T07:18:51.029Z,1000.19
2022-10-22T07:19:52.012Z,1000.23
2022-10-22T07:20:51.002Z,1000.18
2022-10-22T07:21:50.992Z,1000.23
2022-10-22T07:22:51.000Z,1000.28
2022-10-22T07:23:50.970Z,1000.29
2022-10-22T07:24:51.071Z,1000.36
2022-10-22T07:25:51.025Z,1000.33
2022-10-22T07:26:50.948Z,1000.37
2022-10-22T07:27:50.948Z,1000.37
2022-10-22T07:28:50.938Z,1000.38
2022-10-22T07:29:50.922Z,1000.38
2022-10-22T07:30:50.902Z,1000.42
2022-10-22T07:31:50.913Z,1000.46
2022-10-22T07:32:50.874Z,1000.43
2022-10-22T07:33:50.869Z,1000.49
2022-10-22T07:34:50.895Z,1000.47
2022-10-22T07:35:50.846Z,1000.42
2022-10-22T07:36:50.837Z,1000.47
2022-10-22T07:37:50.821Z,1000.47
2022-10-22T07:38:50.825Z,1000.44
2022-10-22T07:39:50.804Z,1000.47
2022-10-22T07:40:50.831Z,1000.50
2022-10-22T07:41:50.782Z,1000.55
2022-10-22T07:42:50.762Z,1000.56
2022-10-22T07:43:50.773Z,1000.55
2022-10-22T07:44:50.755Z,1000.56
2022-10-22T07:45:50.745Z,1000.56
2022-10-22T07:46:50.742Z,1000.58
2022-10-22T07:47:50.708Z,1000.56
2022-10-22T07:48:50.698Z,1000.57
2022-10-22T07:49:50.706Z,1000.60
2022-10-22T07:50:50.684Z,1000.59
2022-10-22T07:51:50.674Z,1000.56
2022-10-22T07:52:51.548Z,1000.53
2022-10-22T07:53:50.644Z,1000.51
2022-10-22T07:54:50.631Z,1000.53
2022-10-22T07:55:50.624Z,1000.54
2022-10-22T07:56:50.635Z,1000.55
2022-10-22T07:57:50.612Z,1000.51
2022-10-22T07:58:50.614Z,1000.55
2022-10-22T07:59:50.608Z,1000.52
2022-10-22T08:00:50.575Z,1000.50
2022-10-22T08:01:50.596Z,1000.52
2022-10-22T08:02:50.543Z,1000.55
2022-10-22T08:03:50.564Z,1000.53
2022-10-22T08:04:50.539Z,1000.54
2022-10-22T08:05:50.522Z,1000.53
2022-10-22T08:06:50.540Z,1000.51
2022-10-22T08:07:50.505Z,1000.54
2022-10-22T08:08:50.513Z,1000.55
2022-10-22T08:09:50.493Z,1000.56
2022-10-22T08:10:50.463Z,1000.57
2022-10-22T08:11:50.461Z,1000.56
2022-10-22T08:12:50.463Z,1000.56
2022-10-22T08:13:50.472Z,1000.55
2022-10-22T08:14:50.506Z,1000.62
2022-10-22T08:15:52.443Z,1000.61
2022-10-22T08:16:51.394Z,1000.62
2022-10-22T08:17:50.397Z,1000.64
2022-10-22T08:18:50.612Z,1000.63
2022-10-22T08:19:50.364Z,1000.61
2022-10-22T08:20:50.354Z,1000.70
2022-10-22T08:21:50.359Z,1000.62
2022-10-22T08:22:50.338Z,1000.63
2022-10-22T08:23:50.331Z,1000.70
2022-10-22T08:24:50.337Z,1000.70
2022-10-22T08:25:50.300Z,1000.73
2022-10-22T08:26:50.288Z,1000.68
2022-10-22T08:27:50.275Z,1000.69
2022-10-22T08:28:50.287Z,1000.67
2022-10-22T08:29:50.281Z,1000.76
2022-10-22T08:30:50.241Z,1000.67
2022-10-22T08:31:50.248Z,1000.71
2022-10-22T08:32:53.099Z,1000.74
2022-10-22T08:33:50.209Z,1000.77
2022-10-22T08:34:50.237Z,1000.75
2022-10-22T08:35:50.225Z,1000.71
2022-10-22T08:36:50.173Z,1000.78
2022-10-22T08:37:50.168Z,1000.73
2022-10-22T08:38:50.168Z,1000.76
2022-10-22T08:39:50.146Z,1000.79
2022-10-22T08:40:50.194Z,1000.83
2022-10-22T08:41:50.148Z,1000.82
2022-10-22T08:42:50.113Z,1000.80
2022-10-22T08:43:50.100Z,1000.82
2022-10-22T08:44:50.111Z,1000.90
2022-10-22T08:45:50.082Z,1000.85
2022-10-22T08:46:50.094Z,1000.93
2022-10-22T08:47:50.071Z,1000.90
2022-10-22T08:48:50.050Z,1000.90
2022-10-22T08:49:50.036Z,1001.00
2022-10-22T08:50:50.033Z,1001.02
2022-10-22T08:51:50.032Z,1001.03
2022-10-22T08:52:50.031Z,1001.07
2022-10-22T08:53:49.998Z,1001.02
2022-10-22T08:54:49.978Z,1001.00
2022-10-22T08:55:49.988Z,1001.03
2022-10-22T08:56:49.990Z,1001.10
2022-10-22T08:57:52.265Z,1001.11
2022-10-22T08:58:50.075Z,1001.13
2022-10-22T08:59:49.925Z,1001.12
2022-10-22T09:00:49.913Z,1001.16
2022-10-22T09:01:49.923Z,1001.11
2022-10-22T09:02:49.894Z,1001.17
2022-10-22T09:03:49.916Z,1001.10
2022-10-22T09:04:49.894Z,1001.10
2022-10-22T09:06:53.504Z,1001.10
2022-10-22T09:07:49.851Z,1001.05
2022-10-22T09:08:49.897Z,1001.11
2022-10-22T09:09:49.837Z,1001.13
2022-10-22T09:10:49.805Z,1001.13
2022-10-22T09:11:49.806Z,1001.18
2022-10-22T09:12:49.862Z,1001.22
2022-10-22T09:13:49.794Z,1001.25
2022-10-22T09:14:49.770Z,1001.23
2022-10-22T09:15:49.760Z,1001.24
2022-10-22T09:16:49.773Z,1001.20
2022-10-22T09:17:49.733Z,1001.16
2022-10-22T09:18:49.794Z,1001.12
2022-10-22T09:19:49.748Z,1001.20
2022-10-22T09:20:49.701Z,1001.12
2022-10-22T09:21:49.703Z,1001.14
2022-10-22T09:22:49.674Z,1001.22
2022-10-22T09:23:49.665Z,1001.22
2022-10-22T09:24:49.674Z,1001.20
2022-10-22T09:25:49.645Z,1001.16
2022-10-22T09:26:49.646Z,1001.14
2022-10-22T09:27:49.647Z,1001.18
2022-10-22T09:28:49.657Z,1001.15
2022-10-22T09:29:49.602Z,1001.19
2022-10-22T09:30:49.920Z,1001.25
2022-10-22T09:31:49.647Z,1001.20
2022-10-22T09:32:49.571Z,1001.17
2022-10-22T09:33:49.607Z,1001.18
2022-10-22T09:34:49.547Z,1001.18
2022-10-22T09:35:49.562Z,1001.17
2022-10-22T09:36:49.552Z,1001.17
2022-10-22T09:37:49.513Z,1001.17
2022-10-22T09:38:49.522Z,1001.13
2022-10-22T09:39:49.523Z,1001.11
2022-10-22T09:40:49.483Z,1001.13
2022-10-22T09:41:49.544Z,1001.13
2022-10-22T09:42:49.461Z,1001.16
2022-10-22T09:43:49.447Z,1001.15
2022-10-22T09:44:49.466Z,1001.19
2022-10-22T09:45:49.464Z,1001.21
2022-10-22T09:46:49.414Z,1001.13
2022-10-22T09:48:01.455Z,1001.22
2022-10-22T09:48:50.407Z,1001.24
2022-10-22T09:49:49.384Z,1001.24
2022-10-22T09:50:49.377Z,1001.26
2022-10-22T09:51:49.378Z,1001.19
2022-10-22T09:52:49.386Z,1001.20
2022-10-22T09:53:49.361Z,1001.20
2022-10-22T09:54:49.336Z,1001.20
2022-10-22T09:55:49.416Z,1001.24
2022-10-22T09:56:49.321Z,1001.28
2022-10-22T09:57:49.863Z,1001.25
2022-10-22T09:58:49.299Z,1001.27
2022-10-22T09:59:49.328Z,1001.26
2022-10-22T10:00:49.288Z,1001.22
2022-10-22T10:01:49.251Z,1001.23
2022-10-22T10:02:49.268Z,1001.31
2022-10-22T10:03:49.226Z,1001.26
2022-10-22T10:04:49.237Z,1001.24
2022-10-22T10:05:49.212Z,1001.26
2022-10-22T10:06:49.303Z,1001.28
2022-10-22T10:07:49.209Z,1001.28
2022-10-22T10:08:49.204Z,1001.29
2022-10-22T10:09:49.161Z,1001.36
2022-10-22T10:10:49.154Z,1001.32
2022-10-22T10:11:49.173Z,1001.36
2022-10-22T10:12:49.166Z,1001.30
2022-10-22T10:13:49.126Z,1001.38
2022-10-22T10:14:49.106Z,1001.32
2022-10-22T10:15:49.125Z,1001.28
2022-10-22T10:16:49.087Z,1001.32
2022-10-22T10:17:49.088Z,1001.29
2022-10-22T10:18:49.089Z,1001.27
2022-10-22T10:19:49.104Z,1001.23
2022-10-22T10:20:49.040Z,1001.28
2022-10-22T10:21:49.037Z,1001.27
2022-10-22T10:22:49.020Z,1001.32
2022-10-22T10:23:49.051Z,1001.23
2022-10-22T10:24:49.001Z,1001.24
2022-10-22T10:25:49.045Z,1001.25
2022-10-22T10:26:48.974Z,1001.23
2022-10-22T10:27:48.970Z,1001.21
2022-10-22T10:28:48.987Z,1001.29
2022-10-22T10:29:48.940Z,1001.25
2022-10-22T10:30:48.931Z,1001.28
2022-10-22T10:31:48.965Z,1001.28
2022-10-22T10:32:48.912Z,1001.32
2022-10-22T10:33:48.919Z,1001.31
2022-10-22T10:34:48.914Z,1001.34
2022-10-22T10:35:48.874Z,1001.32
2022-10-22T10:36:48.869Z,1001.29
2022-10-22T10:37:48.975Z,1001.34
2022-10-22T10:38:48.894Z,1001.28
2022-10-22T10:39:48.852Z,1001.33
2022-10-22T10:40:48.855Z,1001.31
2022-10-22T10:41:48.839Z,1001.26
2022-10-22T10:42:48.819Z,1001.30
2022-10-22T10:43:48.805Z,1001.35
2022-10-22T10:44:48.827Z,1001.30
2022-10-22T10:45:50.355Z,1001.31
2022-10-22T10:46:48.785Z,1001.32
2022-10-22T10:47:48.743Z,1001.29
2022-10-22T10:48:48.753Z,1001.29
2022-10-22T10:49:48.748Z,1001.26
2022-10-22T10:50:48.908Z,1001.23
2022-10-22T10:51:48.708Z,1001.21
2022-10-22T10:52:48.980Z,1001.23
2022-10-22T10:53:48.678Z,1001.22
2022-10-22T10:54:48.679Z,1001.26
2022-10-22T10:55:48.941Z,1001.22
2022-10-22T10:56:48.691Z,1001.28
2022-10-22T10:57:48.657Z,1001.28
2022-10-22T10:58:48.618Z,1001.31
2022-10-22T10:59:48.613Z,1001.36
2022-10-22T11:00:48.608Z,1001.39
2022-10-22T11:01:48.617Z,1001.37
2022-10-22T11:02:48.993Z,1001.39
2022-10-22T11:03:48.565Z,1001.39
2022-10-22T11:04:48.586Z,1001.39
2022-10-22T11:05:48.552Z,1001.41
2022-10-22T11:06:48.544Z,1001.42
2022-10-22T11:07:50.987Z,1001.41
2022-10-22T11:08:48.562Z,1001.35
2022-10-22T11:09:48.520Z,1001.43
2022-10-22T11:10:48.487Z,1001.45
2022-10-22T11:11:48.508Z,1001.45
2022-10-22T11:12:48.465Z,1001.45
2022-10-22T11:13:48.473Z,1001.43
2022-10-22T11:14:48.513Z,1001.43
2022-10-22T11:15:48.444Z,1001.48
2022-10-22T11:16:48.424Z,1001.39
2022-10-22T11:17:48.419Z,1001.46
2022-10-22T11:18:48.431Z,1001.45
2022-10-22T11:19:53.767Z,1001.42
2022-10-22T11:20:49.405Z,1001.40
2022-10-22T11:21:48.587Z,1001.37
2022-10-22T11:23:16.892Z,1001.43
2022-10-22T11:23:48.354Z,1001.45
2022-10-22T11:24:48.333Z,1001.40
2022-10-22T11:25:48.337Z,1001.43
2022-10-22T11:26:48.311Z,1001.43
2022-10-22T11:27:48.397Z,1001.40
2022-10-22T11:28:48.291Z,1001.42
2022-10-22T11:29:48.298Z,1001.43
2022-10-22T11:30:48.293Z,1001.52
2022-10-22T11:31:48.625Z,1001.45
2022-10-22T11:32:48.246Z,1001.47
2022-10-22T11:33:48.234Z,1001.46
2022-10-22T11:34:48.391Z,1001.48
2022-10-22T11:35:48.818Z,1001.45
2022-10-22T11:36:48.209Z,1001.49
2022-10-22T11:37:48.188Z,1001.45
2022-10-22T11:38:48.225Z,1001.47
2022-10-22T11:39:48.221Z,1001.47
2022-10-22T11:40:48.166Z,1001.48
2022-10-22T11:41:48.175Z,1001.51
2022-10-22T11:42:48.303Z,1001.44
2022-10-22T11:43:48.415Z,1001.52
2022-10-22T11:44:48.177Z,1001.46
2022-10-22T11:45:48.100Z,1001.45
2022-10-22T11:46:48.096Z,1001.47
2022-10-22T11:47:48.109Z,1001.44
2022-10-22T11:48:48.067Z,1001.51
2022-10-22T11:49:48.075Z,1001.46
2022-10-22T11:50:48.058Z,1001.48
2022-10-22T11:51:48.065Z,1001.48
2022-10-22T11:52:48.073Z,1001.47
2022-10-22T11:53:48.038Z,1001.41
2022-10-22T11:54:48.001Z,1001.50
2022-10-22T11:55:48.012Z,1001.49
2022-10-22T11:56:48.005Z,1001.48
2022-10-22T11:57:47.988Z,1001.49
2022-10-22T11:58:52.155Z,1001.50
2022-10-22T11:59:48.965Z,1001.47
2022-10-22T12:00:47.943Z,1001.48
2022-10-22T12:01:47.925Z,1001.56
2022-10-22T12:02:47.917Z,1001.57
2022-10-22T12:03:47.919Z,1001.50
2022-10-22T12:04:47.952Z,1001.57
2022-10-22T12:05:47.883Z,1001.63
2022-10-22T12:06:47.875Z,1001.50
2022-10-22T12:07:47.877Z,1001.59
2022-10-22T12:08:47.924Z,1001.56
2022-10-22T12:09:47.880Z,1001.57
2022-10-22T12:10:47.848Z,1001.60
2022-10-22T12:11:47.887Z,1001.63
2022-10-22T12:12:47.807Z,1001.55
2022-10-22T12:13:47.801Z,1001.59
2022-10-22T12:14:47.818Z,1001.61
2022-10-22T12:15:47.802Z,1001.66
2022-10-22T12:16:56.581Z,1001.60
2022-10-22T12:17:48.753Z,1001.61
2022-10-22T12:18:47.738Z,1001.59
2022-10-22T12:19:47.727Z,1001.61
2022-10-22T12:20:47.734Z,1001.61
2022-10-22T12:21:47.722Z,1001.60
2022-10-22T12:22:47.725Z,1001.60
2022-10-22T12:23:47.685Z,1001.67
2022-10-22T12:24:47.679Z,1001.69
2022-10-22T12:25:47.686Z,1001.64